Wendel, West Virginia
Current Conditions -  °F | °C
As of 11:53 AM on Thursday 30 Oct 2014 (Local Time) from KCKB Reporting Station
Overcast Overcast  
Wind Chill: 45°   Ceiling: 4700
Heat Index: 47°   Visibility: 10mi
Dew Point: 37°   Wind: 5mph
Humidity: 68%   Direction: 220°SW
Pressure: 30.12"   Gusts: NA
Location:  39.2753°N, 80.1249°W
Report Text: KCKB 301553Z 22004KT 10SM FEW023 OVC047 08/03 A3012 RMK AO2 SLP198 T00830028
Loading
Personal Weather Stations






























Interactive Weather Map
Tropical Storm Tracking
New forecast layout! Learn more

10-Day Weather Forecast

Advertisements
Track Severe Weather on mobile